sensor_id;sensor_type;location;lat;lon;timestamp;pressure;altitude;pressure_sealevel;temperature;humidity
48402;BME280;34201;52.438;16.744;2022-08-19T00:01:39;99823.22;;;23.65;87.92
48402;BME280;34201;52.438;16.744;2022-08-19T00:04:11;99819.59;;;23.56;88.40
48402;BME280;34201;52.438;16.744;2022-08-19T00:06:37;99814.88;;;23.60;88.37
48402;BME280;34201;52.438;16.744;2022-08-19T00:09:05;99806.28;;;23.68;87.89
48402;BME280;34201;52.438;16.744;2022-08-19T00:11:32;99811.97;;;23.63;88.49
48402;BME280;34201;52.438;16.744;2022-08-19T00:13:57;99815.88;;;23.59;88.73
48402;BME280;34201;52.438;16.744;2022-08-19T00:16:24;99815.44;;;23.64;88.22
48402;BME280;34201;52.438;16.744;2022-08-19T00:18:50;99797.13;;;23.72;88.00
48402;BME280;34201;52.438;16.744;2022-08-19T00:21:15;99802.41;;;23.72;87.67
48402;BME280;34201;52.438;16.744;2022-08-19T00:23:41;99807.97;;;23.69;88.07
48402;BME280;34201;52.438;16.744;2022-08-19T00:26:09;99795.16;;;23.74;87.63
48402;BME280;34201;52.438;16.744;2022-08-19T00:28:34;99787.25;;;23.74;88.00
48402;BME280;34201;52.438;16.744;2022-08-19T00:31:01;99793.50;;;23.73;87.64
48402;BME280;34201;52.438;16.744;2022-08-19T00:33:27;99781.41;;;23.80;87.17
48402;BME280;34201;52.438;16.744;2022-08-19T00:35:52;99784.06;;;23.80;87.27
48402;BME280;34201;52.438;16.744;2022-08-19T00:38:17;99777.81;;;23.81;86.94
48402;BME280;34201;52.438;16.744;2022-08-19T00:40:43;99792.13;;;23.79;86.87
48402;BME280;34201;52.438;16.744;2022-08-19T00:43:13;99783.66;;;23.95;86.00
48402;BME280;34201;52.438;16.744;2022-08-19T00:45:39;99778.66;;;23.91;86.02
48402;BME280;34201;52.438;16.744;2022-08-19T00:48:09;99782.66;;;23.86;86.03
48402;BME280;34201;52.438;16.744;2022-08-19T00:50:34;99785.31;;;23.86;86.38
48402;BME280;34201;52.438;16.744;2022-08-19T00:53:02;99776.44;;;23.77;86.42
48402;BME280;34201;52.438;16.744;2022-08-19T00:55:30;99787.81;;;23.78;86.98
48402;BME280;34201;52.438;16.744;2022-08-19T00:58:00;99781.00;;;23.75;86.60
48402;BME280;34201;52.438;16.744;2022-08-19T01:00:29;99775.72;;;23.75;86.86
48402;BME280;34201;52.438;16.744;2022-08-19T01:02:55;99779.06;;;23.77;86.45
48402;BME280;34201;52.438;16.744;2022-08-19T01:05:24;99777.38;;;23.76;87.12
48402;BME280;34201;52.438;16.744;2022-08-19T01:07:50;99761.56;;;23.76;86.38
48402;BME280;34201;52.438;16.744;2022-08-19T01:10:20;99766.53;;;23.79;86.09
48402;BME280;34201;52.438;16.744;2022-08-19T01:12:47;99767.13;;;23.73;86.79
48402;BME280;34201;52.438;16.744;2022-08-19T01:15:16;99762.38;;;23.67;86.80
48402;BME280;34201;52.438;16.744;2022-08-19T01:17:44;99765.16;;;23.65;86.62
48402;BME280;34201;52.438;16.744;2022-08-19T01:20:18;99755.31;;;23.67;86.18
48402;BME280;34201;52.438;16.744;2022-08-19T01:22:53;99761.28;;;23.69;86.46
48402;BME280;34201;52.438;16.744;2022-08-19T01:25:22;99754.75;;;23.64;86.06
48402;BME280;34201;52.438;16.744;2022-08-19T01:27:50;99770.59;;;23.64;86.49
48402;BME280;34201;52.438;16.744;2022-08-19T01:30:28;99771.53;;;23.63;86.43
48402;BME280;34201;52.438;16.744;2022-08-19T01:32:56;99763.78;;;23.61;86.15
48402;BME280;34201;52.438;16.744;2022-08-19T01:35:23;99751.28;;;23.73;85.74
48402;BME280;34201;52.438;16.744;2022-08-19T01:38:01;99757.25;;;23.65;86.40
48402;BME280;34201;52.438;16.744;2022-08-19T01:40:32;99753.50;;;23.68;86.05
48402;BME280;34201;52.438;16.744;2022-08-19T01:42:59;99744.88;;;23.66;86.21
48402;BME280;34201;52.438;16.744;2022-08-19T01:45:26;99749.31;;;23.65;86.71
48402;BME280;34201;52.438;16.744;2022-08-19T01:47:52;99745.16;;;23.63;86.50
48402;BME280;34201;52.438;16.744;2022-08-19T01:50:18;99741.97;;;23.69;86.38
48402;BME280;34201;52.438;16.744;2022-08-19T01:52:44;99745.28;;;23.71;86.62
48402;BME280;34201;52.438;16.744;2022-08-19T01:55:15;99744.47;;;23.70;86.60
48402;BME280;34201;52.438;16.744;2022-08-19T01:57:43;99736.41;;;23.62;87.14
48402;BME280;34201;52.438;16.744;2022-08-19T02:00:13;99736.97;;;23.56;87.35
48402;BME280;34201;52.438;16.744;2022-08-19T02:02:41;99736.44;;;23.52;87.23
48402;BME280;34201;52.438;16.744;2022-08-19T02:05:06;99736.56;;;23.41;87.75
48402;BME280;34201;52.438;16.744;2022-08-19T02:07:33;99737.94;;;23.35;88.37
48402;BME280;34201;52.438;16.744;2022-08-19T02:10:02;99761.28;;;23.40;88.61
48402;BME280;34201;52.438;16.744;2022-08-19T02:12:28;99761.25;;;23.30;89.36
48402;BME280;34201;52.438;16.744;2022-08-19T02:14:54;99759.19;;;23.24;90.55
48402;BME280;34201;52.438;16.744;2022-08-19T02:17:19;99753.63;;;23.17;90.53
48402;BME280;34201;52.438;16.744;2022-08-19T02:19:45;99751.47;;;23.11;90.28
48402;BME280;34201;52.438;16.744;2022-08-19T02:22:11;99759.13;;;23.04;90.68
48402;BME280;34201;52.438;16.744;2022-08-19T02:24:36;99745.50;;;22.99;90.87
48402;BME280;34201;52.438;16.744;2022-08-19T02:27:01;99755.47;;;22.96;91.43
48402;BME280;34201;52.438;16.744;2022-08-19T02:29:27;99749.50;;;22.94;91.97
48402;BME280;34201;52.438;16.744;2022-08-19T02:31:52;99741.16;;;22.88;91.98
48402;BME280;34201;52.438;16.744;2022-08-19T02:34:18;99742.25;;;22.86;91.99
48402;BME280;34201;52.438;16.744;2022-08-19T02:36:43;99738.66;;;22.87;92.57
48402;BME280;34201;52.438;16.744;2022-08-19T02:39:09;99742.84;;;22.89;92.93
48402;BME280;34201;52.438;16.744;2022-08-19T02:41:34;99750.47;;;22.93;92.45
48402;BME280;34201;52.438;16.744;2022-08-19T02:44:01;99748.28;;;22.98;92.42
48402;BME280;34201;52.438;16.744;2022-08-19T02:46:30;99744.81;;;22.97;91.61
48402;BME280;34201;52.438;16.744;2022-08-19T02:48:59;99750.19;;;22.96;92.61
48402;BME280;34201;52.438;16.744;2022-08-19T02:51:32;99737.97;;;22.85;92.98
48402;BME280;34201;52.438;16.744;2022-08-19T02:53:59;99746.72;;;22.85;93.02
48402;BME280;34201;52.438;16.744;2022-08-19T02:56:25;99737.72;;;22.88;92.69
48402;BME280;34201;52.438;16.744;2022-08-19T02:58:52;99739.25;;;22.90;92.91
48402;BME280;34201;52.438;16.744;2022-08-19T03:01:29;99746.06;;;22.93;93.17
48402;BME280;34201;52.438;16.744;2022-08-19T03:03:56;99733.84;;;22.92;92.70
48402;BME280;34201;52.438;16.744;2022-08-19T03:06:23;99727.72;;;22.92;92.21
48402;BME280;34201;52.438;16.744;2022-08-19T03:08:49;99711.50;;;22.96;91.81
48402;BME280;34201;52.438;16.744;2022-08-19T03:11:25;99714.16;;;22.96;92.02
48402;BME280;34201;52.438;16.744;2022-08-19T03:13:51;99706.91;;;22.98;91.55
48402;BME280;34201;52.438;16.744;2022-08-19T03:16:18;99718.03;;;23.02;91.96
48402;BME280;34201;52.438;16.744;2022-08-19T03:18:43;99714.97;;;22.97;92.41
48402;BME280;34201;52.438;16.744;2022-08-19T03:21:10;99723.00;;;22.85;92.36
48402;BME280;34201;52.438;16.744;2022-08-19T03:23:39;99715.22;;;22.84;92.31
48402;BME280;34201;52.438;16.744;2022-08-19T03:26:05;99724.09;;;22.83;92.79
48402;BME280;34201;52.438;16.744;2022-08-19T03:28:31;99728.38;;;22.74;93.46
48402;BME280;34201;52.438;16.744;2022-08-19T03:31:03;99737.22;;;22.63;94.00
48402;BME280;34201;52.438;16.744;2022-08-19T03:33:30;99738.44;;;22.59;94.55
48402;BME280;34201;52.438;16.744;2022-08-19T03:38:26;99732.72;;;22.44;95.07
48402;BME280;34201;52.438;16.744;2022-08-19T03:40:52;99739.91;;;22.42;95.15
48402;BME280;34201;52.438;16.744;2022-08-19T03:43:17;99742.81;;;22.39;95.51
48402;BME280;34201;52.438;16.744;2022-08-19T03:45:44;99763.53;;;22.32;95.94
48402;BME280;34201;52.438;16.744;2022-08-19T03:48:09;99763.66;;;22.31;96.08
48402;BME280;34201;52.438;16.744;2022-08-19T03:50:39;99756.41;;;22.23;96.20
48402;BME280;34201;52.438;16.744;2022-08-19T03:53:04;99753.34;;;22.18;96.14
48402;BME280;34201;52.438;16.744;2022-08-19T03:55:29;99761.63;;;22.13;96.74
48402;BME280;34201;52.438;16.744;2022-08-19T03:57:55;99752.69;;;22.04;96.78
48402;BME280;34201;52.438;16.744;2022-08-19T04:00:21;99765.66;;;21.96;97.27
48402;BME280;34201;52.438;16.744;2022-08-19T04:02:46;99775.03;;;21.89;98.49
48402;BME280;34201;52.438;16.744;2022-08-19T04:05:12;99769.19;;;21.85;98.59
48402;BME280;34201;52.438;16.744;2022-08-19T04:07:39;99766.09;;;21.80;99.33
48402;BME280;34201;52.438;16.744;2022-08-19T04:10:05;99776.63;;;21.80;99.24
48402;BME280;34201;52.438;16.744;2022-08-19T04:12:31;99779.28;;;21.80;99.76
48402;BME280;34201;52.438;16.744;2022-08-19T04:14:56;99784.78;;;21.77;99.84
48402;BME280;34201;52.438;16.744;2022-08-19T04:17:22;99785.47;;;21.79;100.00
48402;BME280;34201;52.438;16.744;2022-08-19T04:19:47;99782.16;;;21.77;100.00
48402;BME280;34201;52.438;16.744;2022-08-19T04:22:12;99775.09;;;21.78;100.00
48402;BME280;34201;52.438;16.744;2022-08-19T04:24:38;99760.13;;;21.78;99.83
48402;BME280;34201;52.438;16.744;2022-08-19T04:27:04;99754.38;;;21.84;100.00
48402;BME280;34201;52.438;16.744;2022-08-19T04:29:30;99747.28;;;21.85;99.61
48402;BME280;34201;52.438;16.744;2022-08-19T04:31:57;99757.56;;;21.88;100.00
48402;BME280;34201;52.438;16.744;2022-08-19T04:34:26;99766.19;;;21.90;99.76
48402;BME280;34201;52.438;16.744;2022-08-19T04:36:53;99770.22;;;21.94;100.00
48402;BME280;34201;52.438;16.744;2022-08-19T04:39:21;99793.38;;;22.00;100.00
48402;BME280;34201;52.438;16.744;2022-08-19T04:41:47;99804.38;;;22.05;99.98
48402;BME280;34201;52.438;16.744;2022-08-19T04:44:33;99805.41;;;21.93;100.00
48402;BME280;34201;52.438;16.744;2022-08-19T04:46:59;99783.84;;;21.99;99.44
48402;BME280;34201;52.438;16.744;2022-08-19T04:49:25;99782.72;;;22.02;99.65
48402;BME280;34201;52.438;16.744;2022-08-19T04:51:52;99776.03;;;22.09;98.96
48402;BME280;34201;52.438;16.744;2022-08-19T04:54:20;99765.50;;;22.09;99.32
48402;BME280;34201;52.438;16.744;2022-08-19T04:56:50;99745.44;;;22.18;98.72
48402;BME280;34201;52.438;16.744;2022-08-19T04:59:17;99724.56;;;22.26;97.63
48402;BME280;34201;52.438;16.744;2022-08-19T05:01:45;99730.31;;;22.41;96.84
48402;BME280;34201;52.438;16.744;2022-08-19T05:04:15;99743.34;;;22.43;97.00
48402;BME280;34201;52.438;16.744;2022-08-19T05:06:42;99740.34;;;22.47;97.39
48402;BME280;34201;52.438;16.744;2022-08-19T05:09:08;99736.06;;;22.56;96.60
48402;BME280;34201;52.438;16.744;2022-08-19T05:11:36;99738.88;;;22.64;95.64
48402;BME280;34201;52.438;16.744;2022-08-19T05:14:04;99729.72;;;22.59;95.74
48402;BME280;34201;52.438;16.744;2022-08-19T05:16:29;99718.41;;;22.47;95.43
48402;BME280;34201;52.438;16.744;2022-08-19T05:18:55;99729.69;;;22.49;95.95
48402;BME280;34201;52.438;16.744;2022-08-19T05:21:46;99741.03;;;22.49;96.38
48402;BME280;34201;52.438;16.744;2022-08-19T05:24:30;99737.84;;;22.46;96.54
48402;BME280;34201;52.438;16.744;2022-08-19T05:26:59;99725.78;;;22.43;96.21
48402;BME280;34201;52.438;16.744;2022-08-19T05:29:27;99723.00;;;22.45;96.46
48402;BME280;34201;52.438;16.744;2022-08-19T05:31:53;99716.38;;;22.50;96.13
48402;BME280;34201;52.438;16.744;2022-08-19T05:34:21;99699.94;;;22.68;94.18
48402;BME280;34201;52.438;16.744;2022-08-19T05:36:49;99701.28;;;22.62;94.87
48402;BME280;34201;52.438;16.744;2022-08-19T05:39:19;99692.59;;;22.71;94.03
48402;BME280;34201;52.438;16.744;2022-08-19T05:41:55;99703.69;;;22.75;94.23
48402;BME280;34201;52.438;16.744;2022-08-19T05:44:23;99712.28;;;22.77;94.47
48402;BME280;34201;52.438;16.744;2022-08-19T05:49:15;99718.78;;;22.73;95.04
48402;BME280;34201;52.438;16.744;2022-08-19T05:51:41;99698.66;;;22.72;95.21
48402;BME280;34201;52.438;16.744;2022-08-19T05:54:07;99701.34;;;22.82;94.87
48402;BME280;34201;52.438;16.744;2022-08-19T05:56:34;99683.19;;;22.88;93.76
48402;BME280;34201;52.438;16.744;2022-08-19T05:59:04;99678.19;;;22.95;93.10
48402;BME280;34201;52.438;16.744;2022-08-19T06:01:41;99659.47;;;22.98;92.44
48402;BME280;34201;52.438;16.744;2022-08-19T06:04:07;99661.28;;;23.07;91.98
48402;BME280;34201;52.438;16.744;2022-08-19T06:06:34;99674.63;;;23.06;93.00
48402;BME280;34201;52.438;16.744;2022-08-19T06:09:08;99677.66;;;23.11;92.70
48402;BME280;34201;52.438;16.744;2022-08-19T06:14:03;99692.41;;;23.14;92.87
48402;BME280;34201;52.438;16.744;2022-08-19T06:16:29;99680.44;;;23.10;92.77
48402;BME280;34201;52.438;16.744;2022-08-19T06:18:59;99675.63;;;23.24;92.16
48402;BME280;34201;52.438;16.744;2022-08-19T06:21:27;99671.03;;;23.36;91.09
48402;BME280;34201;52.438;16.744;2022-08-19T06:23:54;99659.22;;;23.40;90.25
48402;BME280;34201;52.438;16.744;2022-08-19T06:26:21;99669.09;;;23.38;90.78
48402;BME280;34201;52.438;16.744;2022-08-19T06:28:47;99673.25;;;23.51;90.87
48402;BME280;34201;52.438;16.744;2022-08-19T06:31:17;99652.41;;;23.67;89.68
48402;BME280;34201;52.438;16.744;2022-08-19T06:33:44;99655.97;;;23.76;89.29
48402;BME280;34201;52.438;16.744;2022-08-19T06:36:27;99646.50;;;23.83;89.14
48402;BME280;34201;52.438;16.744;2022-08-19T06:38:56;99642.66;;;23.87;88.51
48402;BME280;34201;52.438;16.744;2022-08-19T06:41:26;99621.19;;;24.00;88.01
48402;BME280;34201;52.438;16.744;2022-08-19T06:43:53;99624.53;;;24.02;87.71
48402;BME280;34201;52.438;16.744;2022-08-19T06:46:19;99626.69;;;24.17;86.99
48402;BME280;34201;52.438;16.744;2022-08-19T06:48:45;99649.28;;;24.29;87.43
48402;BME280;34201;52.438;16.744;2022-08-19T06:51:11;99643.88;;;24.31;86.55
48402;BME280;34201;52.438;16.744;2022-08-19T06:53:36;99649.72;;;24.24;86.85
48402;BME280;34201;52.438;16.744;2022-08-19T06:56:02;99658.91;;;24.48;86.14
48402;BME280;34201;52.438;16.744;2022-08-19T06:58:31;99664.19;;;24.48;86.89
48402;BME280;34201;52.438;16.744;2022-08-19T07:01:01;99668.63;;;24.57;86.52
48402;BME280;34201;52.438;16.744;2022-08-19T07:03:32;99664.28;;;24.66;86.25
48402;BME280;34201;52.438;16.744;2022-08-19T07:06:06;99661.06;;;24.72;86.25
48402;BME280;34201;52.438;16.744;2022-08-19T07:08:32;99647.53;;;24.75;85.02
48402;BME280;34201;52.438;16.744;2022-08-19T07:10:58;99636.59;;;24.88;84.57
48402;BME280;34201;52.438;16.744;2022-08-19T07:13:24;99633.44;;;24.85;83.53
48402;BME280;34201;52.438;16.744;2022-08-19T07:15:50;99656.75;;;24.89;84.39
48402;BME280;34201;52.438;16.744;2022-08-19T07:18:17;99640.91;;;24.89;83.85
48402;BME280;34201;52.438;16.744;2022-08-19T07:20:43;99631.06;;;25.00;82.90
48402;BME280;34201;52.438;16.744;2022-08-19T07:23:09;99634.59;;;25.08;82.54
48402;BME280;34201;52.438;16.744;2022-08-19T07:25:37;99637.72;;;25.04;82.57
48402;BME280;34201;52.438;16.744;2022-08-19T07:28:03;99622.97;;;25.19;82.10
48402;BME280;34201;52.438;16.744;2022-08-19T07:30:29;99644.91;;;25.30;83.14
48402;BME280;34201;52.438;16.744;2022-08-19T07:32:54;99643.59;;;25.34;82.61
48402;BME280;34201;52.438;16.744;2022-08-19T07:35:21;99631.03;;;25.54;81.37
48402;BME280;34201;52.438;16.744;2022-08-19T07:37:47;99633.84;;;25.52;81.18
48402;BME280;34201;52.438;16.744;2022-08-19T07:40:12;99628.91;;;25.57;81.06
48402;BME280;34201;52.438;16.744;2022-08-19T07:42:38;99614.84;;;25.57;80.26
48402;BME280;34201;52.438;16.744;2022-08-19T07:45:05;99637.16;;;25.54;81.66
48402;BME280;34201;52.438;16.744;2022-08-19T07:47:30;99632.63;;;25.73;80.61
48402;BME280;34201;52.438;16.744;2022-08-19T07:49:56;99603.28;;;25.84;80.02
48402;BME280;34201;52.438;16.744;2022-08-19T07:52:21;99620.94;;;26.10;79.81
48402;BME280;34201;52.438;16.744;2022-08-19T07:54:48;99596.56;;;25.98;79.40
48402;BME280;34201;52.438;16.744;2022-08-19T07:57:16;99600.19;;;25.97;79.37
48402;BME280;34201;52.438;16.744;2022-08-19T07:59:41;99599.84;;;26.00;79.71
48402;BME280;34201;52.438;16.744;2022-08-19T08:02:08;99600.00;;;26.25;79.24
48402;BME280;34201;52.438;16.744;2022-08-19T08:04:33;99601.13;;;26.22;78.91
48402;BME280;34201;52.438;16.744;2022-08-19T08:07:17;99594.53;;;26.26;78.60
48402;BME280;34201;52.438;16.744;2022-08-19T08:10:03;99597.72;;;26.46;78.20
48402;BME280;34201;52.438;16.744;2022-08-19T08:12:34;99582.81;;;26.37;77.97
48402;BME280;34201;52.438;16.744;2022-08-19T08:15:01;99589.28;;;26.51;77.47
48402;BME280;34201;52.438;16.744;2022-08-19T08:17:29;99606.25;;;26.83;78.15
48402;BME280;34201;52.438;16.744;2022-08-19T08:19:55;99577.09;;;27.00;76.48
48402;BME280;34201;52.438;16.744;2022-08-19T08:22:22;99575.13;;;26.93;76.33
48402;BME280;34201;52.438;16.744;2022-08-19T08:25:13;99557.84;;;27.06;75.39
48402;BME280;34201;52.438;16.744;2022-08-19T08:27:42;99588.69;;;27.07;76.77
48402;BME280;34201;52.438;16.744;2022-08-19T08:30:10;99565.81;;;27.47;75.33
48402;BME280;34201;52.438;16.744;2022-08-19T08:32:38;99539.53;;;27.60;73.55
48402;BME280;34201;52.438;16.744;2022-08-19T08:35:05;99541.13;;;27.13;74.10
48402;BME280;34201;52.438;16.744;2022-08-19T08:37:31;99556.63;;;27.66;73.59
48402;BME280;34201;52.438;16.744;2022-08-19T08:39:56;99554.84;;;27.50;73.72
48402;BME280;34201;52.438;16.744;2022-08-19T08:42:32;99580.69;;;27.64;74.74
48402;BME280;34201;52.438;16.744;2022-08-19T08:45:03;99563.94;;;28.12;72.66
48402;BME280;34201;52.438;16.744;2022-08-19T08:47:36;99552.00;;;28.08;72.07
48402;BME280;34201;52.438;16.744;2022-08-19T08:50:09;99559.31;;;28.68;71.55
48402;BME280;34201;52.438;16.744;2022-08-19T08:52:43;99513.72;;;28.95;70.21
48402;BME280;34201;52.438;16.744;2022-08-19T08:55:14;99509.13;;;29.04;68.88
48402;BME280;34201;52.438;16.744;2022-08-19T08:57:50;99510.19;;;29.32;68.52
48402;BME280;34201;52.438;16.744;2022-08-19T09:00:26;99496.34;;;29.37;68.01
48402;BME280;34201;52.438;16.744;2022-08-19T09:02:54;99491.84;;;29.52;68.08
48402;BME280;34201;52.438;16.744;2022-08-19T09:05:21;99497.59;;;29.71;67.70
48402;BME280;34201;52.438;16.744;2022-08-19T09:10:32;99504.69;;;29.64;68.48
48402;BME280;34201;52.438;16.744;2022-08-19T09:15:48;99490.25;;;29.73;67.66
48402;BME280;34201;52.438;16.744;2022-08-19T09:18:14;99476.09;;;29.73;66.71
48402;BME280;34201;52.438;16.744;2022-08-19T09:20:41;99487.34;;;30.04;67.02
48402;BME280;34201;52.438;16.744;2022-08-19T09:23:07;99462.78;;;30.09;66.44
48402;BME280;34201;52.438;16.744;2022-08-19T09:25:33;99499.56;;;30.35;66.73
48402;BME280;34201;52.438;16.744;2022-08-19T09:28:00;99461.81;;;29.95;66.49
48402;BME280;34201;52.438;16.744;2022-08-19T09:30:31;99457.84;;;30.06;65.80
48402;BME280;34201;52.438;16.744;2022-08-19T09:32:58;99464.81;;;30.29;65.60
48402;BME280;34201;52.438;16.744;2022-08-19T09:35:25;99437.66;;;30.40;64.42
48402;BME280;34201;52.438;16.744;2022-08-19T09:37:51;99447.69;;;30.38;64.85
48402;BME280;34201;52.438;16.744;2022-08-19T09:40:18;99470.41;;;30.49;65.32
48402;BME280;34201;52.438;16.744;2022-08-19T09:42:45;99469.91;;;30.02;66.59
48402;BME280;34201;52.438;16.744;2022-08-19T09:45:12;99458.84;;;30.05;65.96
48402;BME280;34201;52.438;16.744;2022-08-19T09:47:38;99433.19;;;30.69;63.87
48402;BME280;34201;52.438;16.744;2022-08-19T09:50:08;99429.94;;;30.74;63.84
48402;BME280;34201;52.438;16.744;2022-08-19T09:52:35;99448.91;;;31.14;63.52
48402;BME280;34201;52.438;16.744;2022-08-19T09:55:04;99448.59;;;31.30;63.51
48402;BME280;34201;52.438;16.744;2022-08-19T09:57:29;99445.44;;;31.20;63.67
48402;BME280;34201;52.438;16.744;2022-08-19T09:59:54;99438.25;;;31.14;63.86
48402;BME280;34201;52.438;16.744;2022-08-19T10:02:20;99435.63;;;31.69;62.62
48402;BME280;34201;52.438;16.744;2022-08-19T10:04:45;99413.81;;;31.59;61.75
48402;BME280;34201;52.438;16.744;2022-08-19T10:07:43;99428.50;;;31.34;62.69
48402;BME280;34201;52.438;16.744;2022-08-19T10:10:08;99418.28;;;31.51;61.55
48402;BME280;34201;52.438;16.744;2022-08-19T10:12:35;99412.50;;;32.16;60.81
48402;BME280;34201;52.438;16.744;2022-08-19T10:15:01;99398.06;;;31.84;59.08
48402;BME280;34201;52.438;16.744;2022-08-19T10:17:27;99396.41;;;31.83;58.89
48402;BME280;34201;52.438;16.744;2022-08-19T10:19:53;99388.38;;;31.83;58.97
48402;BME280;34201;52.438;16.744;2022-08-19T10:22:18;99370.47;;;31.70;58.38
48402;BME280;34201;52.438;16.744;2022-08-19T10:24:46;99371.56;;;32.36;58.04
48402;BME280;34201;52.438;16.744;2022-08-19T10:27:11;99344.84;;;32.42;57.00
48402;BME280;34201;52.438;16.744;2022-08-19T10:29:38;99345.44;;;32.51;56.82
48402;BME280;34201;52.438;16.744;2022-08-19T10:32:06;99347.47;;;32.83;57.11
48402;BME280;34201;52.438;16.744;2022-08-19T10:34:34;99342.97;;;32.70;57.42
48402;BME280;34201;52.438;16.744;2022-08-19T10:37:00;99353.81;;;32.88;57.13
48402;BME280;34201;52.438;16.744;2022-08-19T10:39:26;99362.88;;;32.81;57.51
48402;BME280;34201;52.438;16.744;2022-08-19T10:41:53;99354.03;;;32.87;57.46
48402;BME280;34201;52.438;16.744;2022-08-19T10:44:18;99343.88;;;33.09;56.34
48402;BME280;34201;52.438;16.744;2022-08-19T10:46:44;99359.44;;;33.32;56.61
48402;BME280;34201;52.438;16.744;2022-08-19T10:49:12;99359.56;;;32.92;56.70
48402;BME280;34201;52.438;16.744;2022-08-19T10:51:38;99364.13;;;32.85;57.25
48402;BME280;34201;52.438;16.744;2022-08-19T10:54:23;99351.97;;;32.89;56.81
48402;BME280;34201;52.438;16.744;2022-08-19T10:57:10;99341.25;;;33.41;55.78
48402;BME280;34201;52.438;16.744;2022-08-19T10:59:35;99338.22;;;33.31;55.50
48402;BME280;34201;52.438;16.744;2022-08-19T11:02:03;99359.41;;;32.73;56.54
48402;BME280;34201;52.438;16.744;2022-08-19T11:04:29;99352.22;;;32.54;57.20
48402;BME280;34201;52.438;16.744;2022-08-19T11:06:55;99376.47;;;32.79;58.17
48402;BME280;34201;52.438;16.744;2022-08-19T11:09:22;99331.50;;;33.53;55.48
48402;BME280;34201;52.438;16.744;2022-08-19T11:11:52;99344.44;;;33.63;55.77
48402;BME280;34201;52.438;16.744;2022-08-19T11:14:19;99337.59;;;33.67;54.62
48402;BME280;34201;52.438;16.744;2022-08-19T11:16:46;99364.91;;;33.51;55.56
48402;BME280;34201;52.438;16.744;2022-08-19T11:19:12;99319.25;;;33.71;53.85
48402;BME280;34201;52.438;16.744;2022-08-19T11:21:40;99331.22;;;33.30;54.15
48402;BME280;34201;52.438;16.744;2022-08-19T11:24:13;99334.31;;;33.65;54.43
48402;BME280;34201;52.438;16.744;2022-08-19T11:26:40;99326.28;;;33.33;54.42
48402;BME280;34201;52.438;16.744;2022-08-19T11:29:07;99297.28;;;33.23;53.83
48402;BME280;34201;52.438;16.744;2022-08-19T11:31:37;99338.25;;;33.24;54.55
48402;BME280;34201;52.438;16.744;2022-08-19T11:34:08;99329.22;;;33.57;53.46
48402;BME280;34201;52.438;16.744;2022-08-19T11:36:34;99326.59;;;33.05;53.90
48402;BME280;34201;52.438;16.744;2022-08-19T11:39:04;99331.56;;;32.88;54.37
48402;BME280;34201;52.438;16.744;2022-08-19T11:41:29;99339.53;;;33.08;53.89
48402;BME280;34201;52.438;16.744;2022-08-19T11:43:55;99342.69;;;32.91;53.97
48402;BME280;34201;52.438;16.744;2022-08-19T11:46:23;99365.91;;;33.04;54.51
48402;BME280;34201;52.438;16.744;2022-08-19T11:48:49;99348.66;;;33.46;53.76
48402;BME280;34201;52.438;16.744;2022-08-19T11:51:20;99367.47;;;33.32;54.36
48402;BME280;34201;52.438;16.744;2022-08-19T11:53:47;99342.69;;;34.07;52.94
48402;BME280;34201;52.438;16.744;2022-08-19T11:56:13;99323.09;;;33.50;52.41
48402;BME280;34201;52.438;16.744;2022-08-19T11:58:39;99362.88;;;32.81;54.36
48402;BME280;34201;52.438;16.744;2022-08-19T12:01:10;99356.13;;;32.58;54.62
48402;BME280;34201;52.438;16.744;2022-08-19T12:03:36;99376.09;;;32.69;54.65
48402;BME280;34201;52.438;16.744;2022-08-19T12:06:05;99379.13;;;32.92;54.49
48402;BME280;34201;52.438;16.744;2022-08-19T12:08:30;99365.53;;;33.01;54.26
48402;BME280;34201;52.438;16.744;2022-08-19T12:10:56;99393.13;;;32.95;54.91
48402;BME280;34201;52.438;16.744;2022-08-19T12:13:21;99400.72;;;32.98;55.34
48402;BME280;34201;52.438;16.744;2022-08-19T12:15:47;99396.00;;;32.93;55.42
48402;BME280;34201;52.438;16.744;2022-08-19T12:18:13;99402.38;;;33.05;55.55
48402;BME280;34201;52.438;16.744;2022-08-19T12:20:42;99437.44;;;32.70;56.89
48402;BME280;34201;52.438;16.744;2022-08-19T12:23:08;99429.63;;;32.69;57.24
48402;BME280;34201;52.438;16.744;2022-08-19T12:25:35;99433.03;;;33.09;56.43
48402;BME280;34201;52.438;16.744;2022-08-19T12:28:01;99430.44;;;32.49;57.39
48402;BME280;34201;52.438;16.744;2022-08-19T12:30:27;99467.66;;;32.51;58.24
48402;BME280;34201;52.438;16.744;2022-08-19T12:32:52;99457.97;;;32.43;57.93
48402;BME280;34201;52.438;16.744;2022-08-19T12:35:18;99440.84;;;32.11;58.39
48402;BME280;34201;52.438;16.744;2022-08-19T12:37:46;99455.19;;;31.83;58.95
48402;BME280;34201;52.438;16.744;2022-08-19T12:40:12;99479.44;;;31.81;59.30
48402;BME280;34201;52.438;16.744;2022-08-19T12:42:38;99481.44;;;32.34;58.70
48402;BME280;34201;52.438;16.744;2022-08-19T12:45:08;99436.59;;;32.50;57.88
48402;BME280;34201;52.438;16.744;2022-08-19T12:47:33;99442.69;;;32.03;58.06
48402;BME280;34201;52.438;16.744;2022-08-19T12:49:59;99444.28;;;31.78;58.67
48402;BME280;34201;52.438;16.744;2022-08-19T12:52:25;99459.97;;;31.46;58.96
48402;BME280;34201;52.438;16.744;2022-08-19T12:54:53;99478.91;;;31.51;59.37
48402;BME280;34201;52.438;16.744;2022-08-19T12:57:19;99473.03;;;31.27;59.64
48402;BME280;34201;52.438;16.744;2022-08-19T12:59:44;99479.13;;;31.21;59.86
48402;BME280;34201;52.438;16.744;2022-08-19T13:02:10;99478.94;;;31.16;60.05
48402;BME280;34201;52.438;16.744;2022-08-19T13:04:36;99461.53;;;30.98;59.64
48402;BME280;34201;52.438;16.744;2022-08-19T13:07:06;99471.94;;;30.86;59.77